createdAt,value
2018-07-13T00:00:21.385Z,98230.12
2018-07-13T00:01:27.007Z,98227.12
2018-07-13T00:02:31.764Z,98230.34
2018-07-13T00:03:36.475Z,98234.16
2018-07-13T00:04:41.972Z,98230.11
2018-07-13T00:05:47.635Z,98235.53
2018-07-13T00:06:54.224Z,98230.92
2018-07-13T00:08:02.611Z,98237.13
2018-07-13T00:09:10.624Z,98232.98
2018-07-13T00:10:15.264Z,98230.33
2018-07-13T00:11:20.061Z,98232.06
2018-07-13T00:12:25.541Z,98235.27
2018-07-13T00:13:33.031Z,98236.20
2018-07-13T00:14:39.274Z,98237.81
2018-07-13T00:15:49.733Z,98238.27
2018-07-13T00:16:56.593Z,98242.56
2018-07-13T00:18:01.160Z,98242.68
2018-07-13T00:19:06.936Z,98242.79
2018-07-13T00:20:11.476Z,98243.61
2018-07-13T00:21:16.048Z,98241.16
2018-07-13T00:22:21.865Z,98247.27
2018-07-13T00:23:26.687Z,98245.20
2018-07-13T00:24:37.059Z,98238.97
2018-07-13T00:25:45.486Z,98240.59
2018-07-13T00:26:50.252Z,98243.23
2018-07-13T00:27:56.027Z,98246.01
2018-07-13T00:29:01.575Z,98241.51
2018-07-13T00:30:06.114Z,98243.70
2018-07-13T00:31:10.864Z,98242.75
2018-07-13T00:32:15.780Z,98247.70
2018-07-13T00:33:20.306Z,98248.16
2018-07-13T00:34:25.164Z,98245.86
2018-07-13T00:35:30.235Z,98239.98
2018-07-13T00:36:35.425Z,98241.13
2018-07-13T00:37:40.637Z,98240.90
2018-07-13T00:38:45.596Z,98238.13
2018-07-13T00:39:50.181Z,98236.41
2018-07-13T00:40:54.868Z,98239.86
2018-07-13T00:41:59.785Z,98238.59
2018-07-13T00:43:05.207Z,98234.78
2018-07-13T00:44:10.690Z,98237.78
2018-07-13T00:45:15.820Z,98239.39
2018-07-13T00:46:21.217Z,98234.90
2018-07-13T00:47:26.979Z,98241.24
2018-07-13T00:48:31.513Z,98240.66
2018-07-13T00:49:36.060Z,98240.90
2018-07-13T00:50:41.870Z,98238.94
2018-07-13T00:51:47.749Z,98242.52
2018-07-13T00:52:52.256Z,98240.43
2018-07-13T00:53:56.761Z,98246.77
2018-07-13T00:55:02.075Z,98249.20
2018-07-13T00:56:07.007Z,98245.39
2018-07-13T00:57:11.592Z,98249.66
2018-07-13T00:58:17.448Z,98255.19
2018-07-13T00:59:22.010Z,98251.93
2018-07-13T01:00:31.808Z,98251.69
2018-07-13T01:01:36.793Z,98252.24
2018-07-13T01:02:41.649Z,98251.67
2018-07-13T01:03:46.222Z,98249.83
2018-07-13T01:04:51.052Z,98250.53
2018-07-13T01:05:56.068Z,98255.59
2018-07-13T01:07:01.582Z,98255.59
2018-07-13T01:08:07.042Z,98257.33
2018-07-13T01:09:11.579Z,98253.06
2018-07-13T01:10:16.482Z,98256.74
2018-07-13T01:11:21.410Z,98253.34
2018-07-13T01:12:26.470Z,98259.22
2018-07-13T01:13:31.047Z,98254.96
2018-07-13T01:14:35.634Z,98254.38
2018-07-13T01:15:40.344Z,98254.72
2018-07-13T01:16:46.591Z,98259.67
2018-07-13T01:17:51.765Z,98265.66
2018-07-13T01:18:57.757Z,98258.75
2018-07-13T01:20:02.494Z,98260.23
2018-07-13T01:21:07.153Z,98262.08
2018-07-13T01:22:13.070Z,98259.58
2018-07-13T01:23:17.741Z,98257.15
2018-07-13T01:24:22.797Z,98261.88
2018-07-13T01:25:28.194Z,98260.45
2018-07-13T01:26:33.630Z,98252.56
2018-07-13T01:27:38.274Z,98255.45
2018-07-13T01:28:43.729Z,98256.17
2018-07-13T01:29:49.889Z,98252.32
2018-07-13T01:30:56.779Z,98257.17
2018-07-13T01:32:01.710Z,98252.10
2018-07-13T01:33:06.579Z,98261.25
2018-07-13T01:34:12.218Z,98257.94
2018-07-13T01:35:17.144Z,98257.50
2018-07-13T01:36:21.770Z,98259.79
2018-07-13T01:37:26.799Z,98260.95
2018-07-13T01:38:31.439Z,98253.23
2018-07-13T01:39:36.587Z,98254.75
2018-07-13T01:40:42.177Z,98255.53
2018-07-13T01:41:47.292Z,98254.27
2018-07-13T01:42:51.999Z,98253.45
2018-07-13T01:43:58.285Z,98257.72
2018-07-13T01:45:03.438Z,98257.34
2018-07-13T01:46:08.803Z,98248.02
2018-07-13T01:47:13.448Z,98250.63
2018-07-13T01:48:18.114Z,98256.45
2018-07-13T01:49:22.739Z,98252.86
2018-07-13T01:50:28.267Z,98252.16
2018-07-13T01:51:32.894Z,98253.08
2018-07-13T01:52:38.636Z,98249.71
2018-07-13T01:53:43.300Z,98255.80
2018-07-13T01:54:47.933Z,98252.29
2018-07-13T01:55:53.721Z,98256.47
2018-07-13T01:56:58.433Z,98256.36
2018-07-13T01:58:04.735Z,98255.84
2018-07-13T01:59:09.558Z,98260.66
2018-07-13T02:00:14.053Z,98255.70
2018-07-13T02:01:19.809Z,98259.72
2018-07-13T02:02:25.962Z,98254.55
2018-07-13T02:03:30.920Z,98255.92
2018-07-13T02:04:35.932Z,98254.41
2018-07-13T02:05:41.121Z,98257.42
2018-07-13T02:06:46.211Z,98257.74
2018-07-13T02:07:50.968Z,98257.46
2018-07-13T02:08:55.628Z,98262.80
2018-07-13T02:10:00.294Z,98260.95
2018-07-13T02:11:06.317Z,98257.21
2018-07-13T02:12:11.116Z,98261.88
2018-07-13T02:13:16.927Z,98262.64
2018-07-13T02:14:22.041Z,98263.52
2018-07-13T02:15:27.823Z,98263.61
2018-07-13T02:16:32.355Z,98261.89
2018-07-13T02:17:37.138Z,98267.20
2018-07-13T02:18:42.182Z,98263.72
2018-07-13T02:19:46.962Z,98263.74
2018-07-13T02:20:51.491Z,98267.18
2018-07-13T02:21:56.252Z,98258.38
2018-07-13T02:23:00.940Z,98266.73
2018-07-13T02:24:05.567Z,98267.30
2018-07-13T02:25:10.130Z,98263.45
2018-07-13T02:26:14.801Z,98262.09
2018-07-13T02:27:21.348Z,98263.30
2018-07-13T02:28:25.927Z,98260.63
2018-07-13T02:29:30.474Z,98267.61
2018-07-13T02:30:35.033Z,98260.83
2018-07-13T02:31:40.125Z,98263.05
2018-07-13T02:32:44.739Z,98267.45
2018-07-13T02:33:49.763Z,98262.09
2018-07-13T02:34:54.847Z,98263.00
2018-07-13T02:35:59.449Z,98269.42
2018-07-13T02:37:04.117Z,98266.09
2018-07-13T02:38:09.504Z,98268.77
2018-07-13T02:39:14.330Z,98266.34
2018-07-13T02:40:19.543Z,98271.34
2018-07-13T02:41:24.094Z,98266.14
2018-07-13T02:42:28.732Z,98273.03
2018-07-13T02:43:33.849Z,98272.47
2018-07-13T02:44:38.518Z,98272.31
2018-07-13T02:45:43.701Z,98270.14
2018-07-13T02:46:48.649Z,98270.70
2018-07-13T02:47:53.340Z,98276.69
2018-07-13T02:48:58.010Z,98274.97
2018-07-13T02:50:02.843Z,98288.32
2018-07-13T02:51:09.265Z,98281.90
2018-07-13T02:52:14.572Z,98282.41
2018-07-13T02:53:20.057Z,98282.41
2018-07-13T02:54:24.948Z,98277.59
2018-07-13T02:55:29.593Z,98280.23
2018-07-13T02:56:34.741Z,98283.92
2018-07-13T02:57:39.708Z,98283.02
2018-07-13T02:58:45.028Z,98282.10
2018-07-13T02:59:49.869Z,98285.69
2018-07-13T03:00:54.529Z,98287.31
2018-07-13T03:02:00.398Z,98285.42
2018-07-13T03:03:05.157Z,98287.84
2018-07-13T03:04:09.723Z,98285.32
2018-07-13T03:05:14.451Z,98285.77
2018-07-13T03:06:20.018Z,98286.69
2018-07-13T03:07:24.930Z,98287.14
2018-07-13T03:08:31.381Z,98286.15
2018-07-13T03:09:36.957Z,98286.95
2018-07-13T03:10:41.634Z,98294.45
2018-07-13T03:11:46.313Z,98291.45
2018-07-13T03:12:51.274Z,98294.17
2018-07-13T03:13:56.092Z,98289.47
2018-07-13T03:15:01.039Z,98296.14
2018-07-13T03:16:08.585Z,98297.97
2018-07-13T03:17:13.274Z,98288.30
2018-07-13T03:18:20.984Z,98291.80
2018-07-13T03:19:26.901Z,98290.78
2018-07-13T03:20:31.648Z,98291.08
2018-07-13T03:21:37.523Z,98292.34
2018-07-13T03:22:42.220Z,98291.64
2018-07-13T03:23:47.120Z,98290.62
2018-07-13T03:24:51.866Z,98291.59
2018-07-13T03:25:58.009Z,98293.36
2018-07-13T03:27:02.895Z,98290.83
2018-07-13T03:28:07.435Z,98291.77
2018-07-13T03:29:12.598Z,98292.22
2018-07-13T03:30:17.194Z,98295.86
2018-07-13T03:31:21.813Z,98293.94
2018-07-13T03:32:26.941Z,98295.10
2018-07-13T03:33:32.182Z,98295.00
2018-07-13T03:34:36.811Z,98293.98
2018-07-13T03:35:41.393Z,98293.27
2018-07-13T03:36:46.387Z,98298.47
2018-07-13T03:37:50.929Z,98300.90
2018-07-13T03:38:56.265Z,98301.05
2018-07-13T03:40:01.164Z,98298.80
2018-07-13T03:41:06.605Z,98298.39
2018-07-13T03:42:11.571Z,98297.88
2018-07-13T03:43:16.474Z,98301.77
2018-07-13T03:44:21.145Z,98301.41
2018-07-13T03:45:26.354Z,98298.13
2018-07-13T03:46:31.459Z,98302.70
2018-07-13T03:47:37.498Z,98301.33
2018-07-13T03:48:42.225Z,98300.47
2018-07-13T03:49:47.534Z,98298.84
2018-07-13T03:50:52.506Z,98300.98
2018-07-13T03:51:57.769Z,98302.42
2018-07-13T03:53:02.403Z,98304.56
2018-07-13T03:54:07.025Z,98303.14
2018-07-13T03:55:12.469Z,98303.59
2018-07-13T03:56:17.065Z,98301.97
2018-07-13T03:57:22.387Z,98297.07
2018-07-13T03:58:27.261Z,98309.11
2018-07-13T03:59:31.816Z,98302.32
2018-07-13T04:00:37.193Z,98301.25
2018-07-13T04:01:42.934Z,98298.17
2018-07-13T04:02:47.630Z,98305.01
2018-07-13T04:03:54.111Z,98305.66
2018-07-13T04:04:59.780Z,98304.78
2018-07-13T04:06:05.336Z,98308.38
2018-07-13T04:07:11.081Z,98306.47
2018-07-13T04:08:16.289Z,98310.97
2018-07-13T04:09:21.271Z,98303.45
2018-07-13T04:10:26.971Z,98303.86
2018-07-13T04:11:32.278Z,98304.75
2018-07-13T04:12:36.994Z,98307.39
2018-07-13T04:13:41.753Z,98301.97
2018-07-13T04:14:46.498Z,98305.59
2018-07-13T04:15:51.192Z,98301.97
2018-07-13T04:16:56.984Z,98300.70
2018-07-13T04:18:02.742Z,98300.00
2018-07-13T04:19:07.500Z,98299.55
2018-07-13T04:20:12.960Z,98295.75
2018-07-13T04:21:17.647Z,98299.98
2018-07-13T04:22:22.721Z,98299.95
2018-07-13T04:23:27.442Z,98298.84
2018-07-13T04:24:37.057Z,98294.99
2018-07-13T04:25:43.245Z,98297.06
2018-07-13T04:26:51.257Z,98294.99
2018-07-13T04:27:55.962Z,98295.80
2018-07-13T04:29:00.656Z,98296.16
2018-07-13T04:30:05.726Z,98292.07
2018-07-13T04:31:11.661Z,98292.51
2018-07-13T04:32:16.392Z,98289.02
2018-07-13T04:33:21.262Z,98295.04
2018-07-13T04:34:25.937Z,98289.98
2018-07-13T04:35:31.058Z,98290.14
2018-07-13T04:36:35.667Z,98294.38
2018-07-13T04:37:40.689Z,98293.93
2018-07-13T04:38:45.277Z,98288.52
2018-07-13T04:39:49.882Z,98290.39
2018-07-13T04:40:54.978Z,98296.52
2018-07-13T04:41:59.656Z,98293.44
2018-07-13T04:43:04.276Z,98298.59
2018-07-13T04:44:09.284Z,98298.17
2018-07-13T04:45:13.868Z,98301.87
2018-07-13T04:46:20.357Z,98298.89
2018-07-13T04:47:26.257Z,98300.70
2018-07-13T04:48:34.209Z,98300.45
2018-07-13T04:49:42.738Z,98298.27
2018-07-13T04:50:48.447Z,98303.74
2018-07-13T04:51:53.640Z,98305.56
2018-07-13T04:52:58.541Z,98306.83
2018-07-13T04:54:03.311Z,98303.90
2018-07-13T04:55:08.237Z,98302.08
2018-07-13T04:56:12.952Z,98307.14
2018-07-13T04:57:18.539Z,98304.45
2018-07-13T04:58:23.305Z,98309.47
2018-07-13T04:59:29.326Z,98304.95
2018-07-13T05:00:35.458Z,98306.28
2018-07-13T05:01:40.142Z,98300.61
2018-07-13T05:02:45.267Z,98302.37
2018-07-13T05:03:51.066Z,98302.98
2018-07-13T05:04:56.532Z,98302.73
2018-07-13T05:06:01.154Z,98306.12
2018-07-13T05:07:05.810Z,98304.71
2018-07-13T05:08:10.361Z,98303.70
2018-07-13T05:09:16.279Z,98304.74
2018-07-13T05:10:22.255Z,98303.88
2018-07-13T05:11:28.290Z,98301.35
2018-07-13T05:12:34.027Z,98300.70
2018-07-13T05:13:38.714Z,98305.40
2018-07-13T05:14:43.302Z,98296.55
2018-07-13T05:15:49.840Z,98295.73
2018-07-13T05:16:57.653Z,98303.13
2018-07-13T05:18:05.083Z,98300.80
2018-07-13T05:19:09.787Z,98302.59
2018-07-13T05:20:15.573Z,98295.61
2018-07-13T05:21:20.374Z,98296.09
2018-07-13T05:22:26.193Z,98289.19
2018-07-13T05:23:32.040Z,98294.42
2018-07-13T05:24:37.227Z,98292.25
2018-07-13T05:25:43.582Z,98294.82
2018-07-13T05:26:48.319Z,98293.89
2018-07-13T05:27:53.069Z,98296.88
2018-07-13T05:28:58.268Z,98300.55
2018-07-13T05:30:03.914Z,98297.39
2018-07-13T05:31:09.163Z,98298.92
2018-07-13T05:32:13.997Z,98297.44
2018-07-13T05:33:19.943Z,98303.35
2018-07-13T05:34:26.433Z,98297.97
2018-07-13T05:35:34.064Z,98299.55
2018-07-13T05:36:39.248Z,98302.19
2018-07-13T05:37:45.945Z,98300.78
2018-07-13T05:38:51.802Z,98302.13
2018-07-13T05:39:57.779Z,98304.37
2018-07-13T05:41:04.016Z,98304.61
2018-07-13T05:42:10.289Z,98302.19
2018-07-13T05:43:15.390Z,98303.56
2018-07-13T05:44:21.008Z,98310.73
2018-07-13T05:45:25.806Z,98302.23
2018-07-13T05:46:31.613Z,98302.58
2018-07-13T05:47:36.347Z,98308.98
2018-07-13T05:48:41.537Z,98304.54
2018-07-13T05:49:48.258Z,98308.30
2018-07-13T05:50:53.014Z,98308.34
2018-07-13T05:51:57.777Z,98305.09
2018-07-13T05:53:02.614Z,98303.75
2018-07-13T05:54:07.314Z,98308.03
2018-07-13T05:55:12.861Z,98303.22
2018-07-13T05:56:18.707Z,98306.58
2018-07-13T05:57:23.552Z,98302.89
2018-07-13T05:58:28.712Z,98309.17
2018-07-13T05:59:34.857Z,98316.31
2018-07-13T06:00:40.675Z,98314.72
2018-07-13T06:01:49.370Z,98314.29
2018-07-13T06:02:54.093Z,98318.61
2018-07-13T06:03:59.141Z,98325.11
2018-07-13T06:05:03.869Z,98312.69
2018-07-13T06:06:10.340Z,98316.75
2018-07-13T06:07:15.980Z,98316.05
2018-07-13T06:08:21.215Z,98311.25
2018-07-13T06:09:27.472Z,98307.56
2018-07-13T06:10:33.182Z,98311.73
2018-07-13T06:11:37.883Z,98312.84
2018-07-13T06:12:43.657Z,98314.16
2018-07-13T06:13:50.367Z,98312.84
2018-07-13T06:14:55.625Z,98311.08
2018-07-13T06:16:00.656Z,98318.31
2018-07-13T06:17:05.828Z,98314.30
2018-07-13T06:18:11.462Z,98317.69
2018-07-13T06:19:16.394Z,98322.98
2018-07-13T06:20:28.777Z,98325.00
2018-07-13T06:21:36.728Z,98323.33
2018-07-13T06:22:43.399Z,98329.37
2018-07-13T06:23:50.173Z,98323.41
2018-07-13T06:24:57.770Z,98326.94
2018-07-13T06:26:04.274Z,98324.89
2018-07-13T06:27:10.335Z,98326.89
2018-07-13T06:28:16.754Z,98329.14
2018-07-13T06:29:21.497Z,98331.20
2018-07-13T06:30:27.131Z,98324.56
2018-07-13T06:31:32.816Z,98330.06
2018-07-13T06:32:39.640Z,98328.67
2018-07-13T06:33:45.317Z,98326.98
2018-07-13T06:34:51.498Z,98332.42
2018-07-13T06:35:56.216Z,98330.69
2018-07-13T06:37:00.953Z,98330.27
2018-07-13T06:38:05.765Z,98325.57
2018-07-13T06:39:11.913Z,98327.99
2018-07-13T06:40:19.387Z,98329.47
2018-07-13T06:41:24.206Z,98332.92
2018-07-13T06:42:28.931Z,98331.77
2018-07-13T06:43:33.630Z,98331.22
2018-07-13T06:44:38.320Z,98327.09
2018-07-13T06:45:43.058Z,98331.37
2018-07-13T06:46:48.717Z,98323.97
2018-07-13T06:47:53.447Z,98333.30
2018-07-13T06:48:58.214Z,98330.98
2018-07-13T06:50:03.713Z,98333.67
2018-07-13T06:51:08.498Z,98329.86
2018-07-13T06:52:13.224Z,98333.33
2018-07-13T06:53:20.031Z,98331.70
2018-07-13T06:54:24.729Z,98331.33
2018-07-13T06:55:29.456Z,98332.47
2018-07-13T06:56:34.153Z,98328.15
2018-07-13T06:57:43.941Z,98321.57
2018-07-13T06:58:54.750Z,98331.08
2018-07-13T06:59:59.451Z,98328.09
2018-07-13T07:01:06.957Z,98325.87
2018-07-13T07:02:15.850Z,98323.93
2018-07-13T07:03:20.594Z,98326.88
2018-07-13T07:04:27.490Z,98326.16
2018-07-13T07:06:34.301Z,98327.22
2018-07-13T07:07:40.114Z,98330.44
2018-07-13T07:08:45.366Z,98327.79
2018-07-13T07:09:57.387Z,98328.51
2018-07-13T07:11:02.800Z,98331.01
2018-07-13T07:13:10.298Z,98332.19
2018-07-13T07:14:15.904Z,98329.38
2018-07-13T07:15:21.282Z,98336.99
2018-07-13T07:16:27.661Z,98334.20
2018-07-13T07:17:33.380Z,98338.91
2018-07-13T07:18:38.165Z,98334.19
2018-07-13T07:19:42.955Z,98333.68
2018-07-13T07:20:47.690Z,98333.23
2018-07-13T07:21:53.425Z,98333.78
2018-07-13T07:22:58.179Z,98332.54
2018-07-13T07:24:03.020Z,98333.24
2018-07-13T07:25:08.670Z,98334.58
2018-07-13T07:26:14.395Z,98333.42
2018-07-13T07:27:19.579Z,98335.22
2018-07-13T07:28:24.500Z,98329.31
2018-07-13T07:29:29.463Z,98331.86
2018-07-13T07:30:34.315Z,98336.83
2018-07-13T07:31:39.143Z,98336.20
2018-07-13T07:32:45.015Z,98340.16
2018-07-13T07:33:50.150Z,98335.06
2018-07-13T07:34:55.072Z,98333.97
2018-07-13T07:36:01.616Z,98333.44
2018-07-13T07:37:06.550Z,98337.48
2018-07-13T07:38:12.591Z,98336.85
2018-07-13T07:39:18.182Z,98338.91
2018-07-13T07:40:24.341Z,98344.69
2018-07-13T07:41:29.151Z,98337.10
2018-07-13T07:42:35.064Z,98343.41
2018-07-13T07:43:39.811Z,98340.42
2018-07-13T07:44:44.559Z,98341.14
2018-07-13T07:45:49.293Z,98337.61
2018-07-13T07:46:54.404Z,98341.94
2018-07-13T07:47:59.493Z,98341.33
2018-07-13T07:49:05.121Z,98339.47
2018-07-13T07:50:10.051Z,98339.67
2018-07-13T07:51:14.842Z,98346.66
2018-07-13T07:52:19.586Z,98334.40
2018-07-13T07:53:24.240Z,98335.96
2018-07-13T07:54:28.970Z,98340.09
2018-07-13T07:55:33.596Z,98336.89
2018-07-13T07:56:38.278Z,98335.70
2018-07-13T07:57:43.114Z,98340.05
2018-07-13T07:58:48.923Z,98334.72
2018-07-13T07:59:53.835Z,98330.27
2018-07-13T08:00:58.534Z,98332.27
2018-07-13T08:02:03.491Z,98331.84
2018-07-13T08:03:08.236Z,98337.78
2018-07-13T08:04:13.789Z,98328.92
2018-07-13T08:05:18.895Z,98330.25
2018-07-13T08:06:25.527Z,98328.43
2018-07-13T08:07:30.971Z,98330.06
2018-07-13T08:08:35.765Z,98332.98
2018-07-13T08:09:40.542Z,98328.36
2018-07-13T08:10:45.667Z,98333.77
2018-07-13T08:11:52.633Z,98335.22
2018-07-13T08:12:57.374Z,98326.59
2018-07-13T08:14:03.337Z,98331.56
2018-07-13T08:15:08.176Z,98332.09
2018-07-13T08:16:15.895Z,98326.99
2018-07-13T08:17:20.801Z,98329.14
2018-07-13T08:18:27.060Z,98335.20
2018-07-13T08:19:31.768Z,98328.67
2018-07-13T08:20:38.252Z,98340.59
2018-07-13T08:21:45.920Z,98336.09
2018-07-13T08:22:51.589Z,98337.81
2018-07-13T08:23:56.521Z,98333.42
2018-07-13T08:25:01.888Z,98335.06
2018-07-13T08:26:09.718Z,98338.92
2018-07-13T08:27:15.977Z,98332.00
2018-07-13T08:28:20.964Z,98328.64
2018-07-13T08:29:28.481Z,98331.75
2018-07-13T08:30:34.353Z,98330.04
2018-07-13T08:31:39.556Z,98324.26
2018-07-13T08:32:47.358Z,98327.25
2018-07-13T08:33:52.936Z,98329.58
2018-07-13T08:34:57.770Z,98327.64
2018-07-13T08:36:02.641Z,98322.27
2018-07-13T08:37:07.413Z,98330.80
2018-07-13T08:38:12.690Z,98329.42
2018-07-13T08:39:18.422Z,98326.84
2018-07-13T08:40:24.316Z,98327.27
2018-07-13T08:41:29.076Z,98332.01
2018-07-13T08:42:33.793Z,98330.23
2018-07-13T08:43:38.496Z,98328.17
2018-07-13T08:44:47.703Z,98325.03
2018-07-13T08:45:53.484Z,98325.26
2018-07-13T08:46:59.075Z,98331.78
2018-07-13T08:48:04.155Z,98324.39
2018-07-13T08:49:09.847Z,98325.48
2018-07-13T08:50:14.597Z,98329.38
2018-07-13T08:51:23.276Z,98326.64
2018-07-13T08:52:28.852Z,98323.48
2018-07-13T08:53:34.745Z,98322.12
2018-07-13T08:54:39.535Z,98323.69
2018-07-13T08:55:44.646Z,98303.66
2018-07-13T08:56:49.635Z,98305.91
2018-07-13T08:57:57.545Z,98320.74
2018-07-13T08:59:03.426Z,98325.36
2018-07-13T09:00:09.549Z,98320.61
2018-07-13T09:01:15.428Z,98319.73
2018-07-13T09:02:20.167Z,98321.17
2018-07-13T09:03:25.988Z,98328.31
2018-07-13T09:04:31.046Z,98324.31
2018-07-13T09:05:35.775Z,98324.30
2018-07-13T09:06:40.471Z,98325.56
2018-07-13T09:07:46.072Z,98329.34
2018-07-13T09:08:51.593Z,98328.73
2018-07-13T09:09:59.964Z,98327.11
2018-07-13T09:11:04.669Z,98326.81
2018-07-13T09:12:10.544Z,98329.25
2018-07-13T09:13:16.739Z,98320.35
2018-07-13T09:14:21.476Z,98328.09
2018-07-13T09:15:26.223Z,98329.67
2018-07-13T09:16:31.244Z,98329.36
2018-07-13T09:17:37.626Z,98323.11
2018-07-13T09:18:42.533Z,98327.45
2018-07-13T09:19:47.288Z,98328.74
2018-07-13T09:20:53.754Z,98329.68
2018-07-13T09:21:58.472Z,98331.24
2018-07-13T09:23:03.643Z,98330.31
2018-07-13T09:24:08.423Z,98330.92
2018-07-13T09:25:13.271Z,98324.83
2018-07-13T09:26:18.023Z,98328.30
2018-07-13T09:27:23.694Z,98324.24
2018-07-13T09:28:33.613Z,98323.78
2018-07-13T09:29:39.023Z,98319.70
2018-07-13T09:30:43.715Z,98329.22
2018-07-13T09:31:48.451Z,98328.91
2018-07-13T09:32:53.236Z,98328.23
2018-07-13T09:33:59.117Z,98329.72
2018-07-13T09:35:04.173Z,98329.52
2018-07-13T09:36:09.870Z,98327.14
2018-07-13T09:37:14.613Z,98326.28
2018-07-13T09:38:19.801Z,98327.89
2018-07-13T09:39:25.361Z,98325.11
2018-07-13T09:41:41.634Z,98328.34
2018-07-13T09:42:46.363Z,98328.52
2018-07-13T09:43:52.592Z,98324.45
2018-07-13T09:44:59.233Z,98323.95
2018-07-13T09:46:09.510Z,98328.77
2018-07-13T09:47:14.841Z,98328.40
2018-07-13T09:48:20.673Z,98328.42
2018-07-13T09:49:26.370Z,98330.69
2018-07-13T09:50:33.835Z,98329.77
2018-07-13T09:51:39.012Z,98324.46
2018-07-13T09:52:45.161Z,98319.89
2018-07-13T09:53:50.636Z,98333.09
2018-07-13T09:54:55.687Z,98329.94
2018-07-13T09:56:01.291Z,98333.27
2018-07-13T09:57:06.051Z,98335.97
2018-07-13T09:58:10.784Z,98337.08
2018-07-13T09:59:16.532Z,98331.36
2018-07-13T10:00:29.636Z,98332.68
2018-07-13T10:01:34.982Z,98334.78
2018-07-13T10:02:40.702Z,98330.34
2018-07-13T10:03:46.667Z,98329.34
2018-07-13T10:04:52.208Z,98333.30
2018-07-13T10:05:57.875Z,98331.16
2018-07-13T10:07:04.234Z,98339.64
2018-07-13T10:08:11.798Z,98331.16
2018-07-13T10:09:16.445Z,98325.52
2018-07-13T10:10:21.169Z,98325.66
2018-07-13T10:11:25.963Z,98334.80
2018-07-13T10:12:30.686Z,98328.94
2018-07-13T10:13:36.572Z,98330.69
2018-07-13T10:14:41.256Z,98327.14
2018-07-13T10:15:46.945Z,98335.83
2018-07-13T10:16:52.677Z,98330.54
2018-07-13T10:17:59.182Z,98338.09
2018-07-13T10:19:05.747Z,98333.43
2018-07-13T10:20:11.961Z,98335.74
2018-07-13T10:21:18.545Z,98335.50
2018-07-13T10:22:28.989Z,98334.24
2018-07-13T10:23:35.193Z,98331.48
2018-07-13T10:24:39.896Z,98325.89
2018-07-13T10:25:46.867Z,98330.84
2018-07-13T10:26:52.889Z,98332.42
2018-07-13T10:27:57.625Z,98325.18
2018-07-13T10:29:03.353Z,98334.98
2018-07-13T10:30:09.105Z,98330.53
2018-07-13T10:31:14.762Z,98336.30
2018-07-13T10:32:20.853Z,98331.98
2018-07-13T10:33:26.763Z,98336.41
2018-07-13T10:34:32.937Z,98334.33
2018-07-13T10:35:40.401Z,98330.50
2018-07-13T10:36:49.783Z,98334.28
2018-07-13T10:37:57.598Z,98327.22
2018-07-13T10:39:03.505Z,98325.73
2018-07-13T10:40:09.299Z,98326.63
2018-07-13T10:41:14.779Z,98323.64
2018-07-13T10:42:20.215Z,98326.34
2018-07-13T10:43:28.006Z,98327.13
2018-07-13T10:44:34.000Z,98321.63
2018-07-13T10:45:39.368Z,98323.98
2018-07-13T10:46:44.376Z,98320.09
2018-07-13T10:47:49.209Z,98323.31
2018-07-13T10:48:54.983Z,98326.63
2018-07-13T10:49:59.670Z,98325.70
2018-07-13T10:51:05.767Z,98325.48
2018-07-13T10:52:12.587Z,98322.13
2018-07-13T10:53:18.161Z,98321.92
2018-07-13T10:54:23.345Z,98322.52
2018-07-13T10:55:28.104Z,98322.86
2018-07-13T10:56:33.009Z,98317.63
2018-07-13T10:57:38.765Z,98319.44
2018-07-13T10:58:44.543Z,98322.03
2018-07-13T10:59:49.655Z,98319.60
2018-07-13T11:00:55.244Z,98318.95
2018-07-13T11:01:59.834Z,98314.55
2018-07-13T11:03:05.369Z,98314.11
2018-07-13T11:04:11.117Z,98312.98
2018-07-13T11:05:17.787Z,98318.56
2018-07-13T11:06:22.428Z,98323.22
2018-07-13T11:07:27.491Z,98313.09
2018-07-13T11:08:32.180Z,98319.97
2018-07-13T11:09:37.715Z,98316.80
2018-07-13T11:10:42.362Z,98312.67
2018-07-13T11:11:47.377Z,98316.73
2018-07-13T11:12:54.364Z,98312.66
2018-07-13T11:13:59.092Z,98310.30
2018-07-13T11:15:04.149Z,98316.30
2018-07-13T11:16:08.777Z,98310.89
2018-07-13T11:17:14.655Z,98316.80
2018-07-13T11:18:19.358Z,98308.62
2018-07-13T11:19:24.095Z,98309.50
2018-07-13T11:20:28.748Z,98310.42
2018-07-13T11:21:33.831Z,98309.73
2018-07-13T11:22:39.501Z,98301.33
2018-07-13T11:23:45.196Z,98301.67
2018-07-13T11:24:51.808Z,98305.05
2018-07-13T11:25:57.383Z,98300.87
2018-07-13T11:27:03.062Z,98303.16
2018-07-13T11:28:09.387Z,98301.39
2018-07-13T11:29:14.030Z,98302.96
2018-07-13T11:30:19.637Z,98304.80
2018-07-13T11:31:24.320Z,98301.11
2018-07-13T11:32:29.370Z,98301.56
2018-07-13T11:33:34.285Z,98305.11
2018-07-13T11:34:40.769Z,98302.22
2018-07-13T11:35:47.077Z,98299.17
2018-07-13T11:36:52.211Z,98298.36
2018-07-13T11:37:57.691Z,98302.41
2018-07-13T11:39:03.543Z,98297.30
2018-07-13T11:40:08.960Z,98293.36
2018-07-13T11:41:13.901Z,98294.52
2018-07-13T11:42:19.137Z,98288.03
2018-07-13T11:43:23.814Z,98295.55
2018-07-13T11:44:30.428Z,98296.20
2018-07-13T11:45:37.380Z,98291.41
2018-07-13T11:46:43.280Z,98298.33
2018-07-13T11:47:47.937Z,98289.20
2018-07-13T11:48:52.579Z,98291.31
2018-07-13T11:49:59.261Z,98284.02
2018-07-13T11:51:03.945Z,98286.55
2018-07-13T11:52:08.631Z,98283.97
2018-07-13T11:53:13.563Z,98283.53
2018-07-13T11:54:20.594Z,98278.34
2018-07-13T11:55:25.263Z,98279.31
2018-07-13T11:56:30.545Z,98272.36
2018-07-13T11:57:36.074Z,98279.02
2018-07-13T11:58:41.699Z,98283.59
2018-07-13T11:59:48.000Z,98285.30
2018-07-13T12:00:53.330Z,98278.95
2018-07-13T12:01:58.076Z,98271.11
2018-07-13T12:03:02.807Z,98275.06
2018-07-13T12:04:08.078Z,98271.85
2018-07-13T12:05:13.963Z,98274.73
2018-07-13T12:06:19.010Z,98277.73
2018-07-13T12:07:23.713Z,98277.46
2018-07-13T12:08:28.203Z,98279.47
2018-07-13T12:09:34.551Z,98273.63
2018-07-13T12:10:40.061Z,98274.58
2018-07-13T12:11:45.255Z,98274.08
2018-07-13T12:12:50.145Z,98274.06
2018-07-13T12:13:54.708Z,98271.69
2018-07-13T12:14:59.209Z,98268.92
2018-07-13T12:16:04.797Z,98275.28
2018-07-13T12:17:09.371Z,98271.68
2018-07-13T12:18:14.172Z,98268.34
2018-07-13T12:19:21.448Z,98269.48
2018-07-13T12:20:27.553Z,98268.77
2018-07-13T12:21:33.440Z,98266.27
2018-07-13T12:22:39.447Z,98269.41
2018-07-13T12:23:48.016Z,98265.38
2018-07-13T12:25:02.144Z,98256.19
2018-07-13T12:26:10.500Z,98258.02
2018-07-13T12:27:18.752Z,98264.55
2018-07-13T12:28:28.977Z,98270.31
2018-07-13T12:29:37.643Z,98270.20
2018-07-13T12:30:53.323Z,98271.41
2018-07-13T12:32:00.611Z,98268.14
2018-07-13T12:33:11.776Z,98259.83
2018-07-13T12:34:16.861Z,98257.85
2018-07-13T12:35:25.099Z,98261.27
2018-07-13T12:36:39.393Z,98262.39
2018-07-13T12:37:51.151Z,98265.73
2018-07-13T12:38:56.939Z,98263.19
2018-07-13T12:40:04.288Z,98261.84
2018-07-13T12:42:22.249Z,98271.09
2018-07-13T12:43:34.306Z,98268.72
2018-07-13T12:46:06.975Z,98263.98
2018-07-13T12:47:14.613Z,98262.49
2018-07-13T12:48:21.786Z,98259.58
2018-07-13T12:49:29.283Z,98262.78
2018-07-13T12:50:36.397Z,98263.24
2018-07-13T12:51:42.690Z,98262.14
2018-07-13T12:52:48.479Z,98269.73
2018-07-13T12:53:54.005Z,98264.77
2018-07-13T12:54:59.294Z,98260.66
2018-07-13T12:56:07.008Z,98259.95